NASA966 KLAL-KTTS
Flight info
| Callsign | NASA966 |
|---|---|
| Flight time | 0h 14m |
| Altitude | 38000 |
| Route | KLAL DCT KTTS |
| Aircraft | T38/L-VGD/C |
Departure
| Time | 2026-04-26 23:22 |
|---|---|
| Airport | Lakeland Linder International Airport (KLAL) |
Arrival
| Time | 2026-04-26 23:37 |
|---|---|
| Airport | Space Florida Launch and Landing Facility (KTTS) |
| Time | Latitude | Longitude | Altitude | Speed | Heading |
|---|---|---|---|---|---|
| 2026-04-26 23:02 | 27.98809 | -82.01499 | 143 ft | 0 kts | 314° |
| 2026-04-26 23:18 | 27.98815 | -82.01521 | 143 ft | 2 kts | 263° |
| 2026-04-26 23:18 | 27.98764 | -82.01572 | 145 ft | 9 kts | 184° |
| 2026-04-26 23:18 | 27.98732 | -82.01510 | 144 ft | 12 kts | 93° |
| 2026-04-26 23:19 | 27.98732 | -82.01391 | 141 ft | 20 kts | 91° |
| 2026-04-26 23:19 | 27.98733 | -82.01248 | 140 ft | 18 kts | 90° |
| 2026-04-26 23:19 | 27.98733 | -82.01092 | 141 ft | 21 kts | 89° |
| 2026-04-26 23:19 | 27.98735 | -82.00911 | 138 ft | 26 kts | 90° |
| 2026-04-26 23:20 | 27.98775 | -82.00747 | 140 ft | 18 kts | 354° |
| 2026-04-26 23:20 | 27.98872 | -82.00758 | 141 ft | 0 kts | 354° |
| 2026-04-26 23:21 | 27.98878 | -82.00758 | 142 ft | 10 kts | 354° |
| 2026-04-26 23:21 | 27.98930 | -82.00802 | 143 ft | 0 kts | 270° |
| 2026-04-26 23:21 | 27.98930 | -82.00824 | 143 ft | 26 kts | 270° |
| 2026-04-26 23:22 | 27.98931 | -82.01162 | 139 ft | 102 kts | 269° |
| 2026-04-26 23:22 | 27.98928 | -82.02876 | 155 ft | 228 kts | 271° |
| 2026-04-26 23:22 | 27.98928 | -82.04178 | 962 ft | 235 kts | 272° |
| 2026-04-26 23:22 | 27.98496 | -82.05845 | 3377 ft | 244 kts | 208° |
| 2026-04-26 23:23 | 27.96706 | -82.05529 | 4233 ft | 309 kts | 126° |
| 2026-04-26 23:23 | 27.96305 | -82.02967 | 4852 ft | 357 kts | 94° |
| 2026-04-26 23:23 | 27.95989 | -82.00102 | 6760 ft | 391 kts | 98° |
| 2026-04-26 23:23 | 27.95487 | -81.96871 | 7953 ft | 443 kts | 100° |
| 2026-04-26 23:24 | 27.94818 | -81.93265 | 8451 ft | 506 kts | 99° |
| 2026-04-26 23:24 | 27.94898 | -81.89151 | 9241 ft | 550 kts | 76° |
| 2026-04-26 23:24 | 27.96211 | -81.85366 | 10381 ft | 484 kts | 59° |
| 2026-04-26 23:24 | 27.97866 | -81.82296 | 10544 ft | 438 kts | 57° |
| 2026-04-26 23:25 | 27.99433 | -81.79440 | 10522 ft | 425 kts | 56° |
| 2026-04-26 23:25 | 28.01011 | -81.76555 | 10545 ft | 440 kts | 57° |
| 2026-04-26 23:25 | 28.02632 | -81.73571 | 10567 ft | 456 kts | 56° |
| 2026-04-26 23:25 | 28.04348 | -81.70472 | 10478 ft | 474 kts | 56° |
| 2026-04-26 23:26 | 28.06127 | -81.67277 | 10499 ft | 486 kts | 56° |
| 2026-04-26 23:26 | 28.08005 | -81.63913 | 10473 ft | 526 kts | 56° |
| 2026-04-26 23:26 | 28.09983 | -81.60335 | 11139 ft | 547 kts | 57° |
| 2026-04-26 23:26 | 28.12021 | -81.56632 | 12106 ft | 564 kts | 56° |
| 2026-04-26 23:27 | 28.14153 | -81.52833 | 12976 ft | 579 kts | 56° |
| 2026-04-26 23:27 | 28.16351 | -81.48940 | 13823 ft | 594 kts | 56° |
| 2026-04-26 23:27 | 28.18539 | -81.45039 | 15123 ft | 591 kts | 56° |
| 2026-04-26 23:27 | 28.20788 | -81.41063 | 15965 ft | 605 kts | 56° |
| 2026-04-26 23:28 | 28.23099 | -81.37003 | 16371 ft | 623 kts | 56° |
| 2026-04-26 23:28 | 28.25475 | -81.32837 | 16360 ft | 634 kts | 56° |
| 2026-04-26 23:28 | 28.27842 | -81.28664 | 16565 ft | 634 kts | 55° |
| 2026-04-26 23:28 | 28.30281 | -81.24457 | 16806 ft | 635 kts | 55° |
| 2026-04-26 23:29 | 28.32708 | -81.20314 | 16517 ft | 639 kts | 55° |
| 2026-04-26 23:29 | 28.35125 | -81.16142 | 16544 ft | 625 kts | 55° |
| 2026-04-26 23:29 | 28.37479 | -81.12055 | 16496 ft | 621 kts | 55° |
| 2026-04-26 23:29 | 28.39834 | -81.07962 | 16394 ft | 619 kts | 55° |
| 2026-04-26 23:30 | 28.42178 | -81.03864 | 16344 ft | 616 kts | 56° |
| 2026-04-26 23:30 | 28.44470 | -80.99819 | 16828 ft | 602 kts | 56° |
| 2026-04-26 23:30 | 28.46459 | -80.95736 | 16178 ft | 580 kts | 75° |
| 2026-04-26 23:30 | 28.47101 | -80.91155 | 12901 ft | 587 kts | 81° |
| 2026-04-26 23:31 | 28.47685 | -80.86616 | 9938 ft | 578 kts | 80° |
| 2026-04-26 23:31 | 28.48424 | -80.82178 | 6783 ft | 568 kts | 76° |
| 2026-04-26 23:31 | 28.49345 | -80.78301 | 4677 ft | 458 kts | 73° |
| 2026-04-26 23:31 | 28.50176 | -80.75151 | 3611 ft | 377 kts | 71° |
| 2026-04-26 23:32 | 28.50931 | -80.72504 | 3068 ft | 337 kts | 70° |
| 2026-04-26 23:32 | 28.51642 | -80.70190 | 2449 ft | 301 kts | 69° |
| 2026-04-26 23:32 | 28.52523 | -80.68023 | 1939 ft | 303 kts | 48° |
| 2026-04-26 23:32 | 28.54193 | -80.66743 | 1173 ft | 276 kts | 18° |
| 2026-04-26 23:33 | 28.55963 | -80.66481 | 862 ft | 234 kts | 356° |
| 2026-04-26 23:33 | 28.57490 | -80.66881 | 556 ft | 254 kts | 339° |
| 2026-04-26 23:33 | 28.59284 | -80.67975 | 146 ft | 325 kts | 330° |
| 2026-04-26 23:33 | 28.61304 | -80.69339 | 94 ft | 354 kts | 330° |
| 2026-04-26 23:34 | 28.63485 | -80.70770 | 299 ft | 356 kts | 330° |
| 2026-04-26 23:34 | 28.65684 | -80.71043 | 1502 ft | 321 kts | 1° |
| 2026-04-26 23:34 | 28.66968 | -80.72119 | 1500 ft | 219 kts | 246° |
| 2026-04-26 23:34 | 28.65809 | -80.72425 | 1133 ft | 185 kts | 149° |
| 2026-04-26 23:35 | 28.64655 | -80.71595 | 462 ft | 194 kts | 145° |
| 2026-04-26 23:35 | 28.63596 | -80.70838 | 116 ft | 177 kts | 147° |
| 2026-04-26 23:35 | 28.62687 | -80.70242 | 18 ft | 123 kts | 148° |
| 2026-04-26 23:35 | 28.62063 | -80.69809 | 16 ft | 93 kts | 150° |
| 2026-04-26 23:36 | 28.61513 | -80.69456 | 12 ft | 88 kts | 150° |
| 2026-04-26 23:36 | 28.61038 | -80.69144 | 14 ft | 73 kts | 149° |
| 2026-04-26 23:36 | 28.60630 | -80.68869 | 12 ft | 62 kts | 149° |
| 2026-04-26 23:36 | 28.60277 | -80.68635 | 16 ft | 55 kts | 150° |
| 2026-04-26 23:37 | 28.60022 | -80.68474 | 17 ft | 35 kts | 148° |
| 2026-04-26 23:37 | 28.59957 | -80.68428 | 16 ft | 0 kts | 147° |